Inicio METAR Ruta Wind Satelite

Informe Meteorológico

Fecha: 2024/06/18 20:51:00 Local
2024.06.19 01:51 UTC


Operación:VFR
SKMD 190100Z NIL =

SKMD 182200Z 11007KT 9999 -TSRA SCT030CB SCT045 BKN080 20/19 Q1017 RMK CB/SE/S
SKMD 182100Z 35008KT 290V040 9999 7000S TS VCSH SCT030CB SCT045 23/17 Q1016 RMK CB VCSH/S/N
SKMD 182000Z 32014KT 270V030 9999 TS VCSH FEW030CB SCT045 23/18 Q1016 RMK CB VCSH/W/NW
SKMD 181900Z 18012KT 150V260 9999 TS VCSH SCT035CB 29/17 Q1016 RMK CB VCSH/NE/E
SKMD 181800Z 20009KT 120V240 9999 SCT040 28/16 Q1017